Time;durP1;ratioP1;P1;durP2;ratioP2;P2;SDS_P1;SDS_P2;PMS_P1;PMS_P2;Temp;Humidity;BMP_temperature;BMP_pressure;BME280_temperature;BME280_humidity;BME280_pressure;Samples;Min_cycle;Max_cycle;Signal;HPM_P1;HPM_P2
2024/02/19 00:01:25;;;;;;;0.43;0.43;;;;;;;;;;5018868;28;20526;-80
2024/02/19 00:03:51;;;;;;;0.40;0.40;;;;;;;;;;5026424;28;20462;-79
2024/02/19 00:06:18;;;;;;;0.50;0.50;;;;;;;;;;5024695;28;20478;-80
2024/02/19 00:08:44;;;;;;;0.50;0.50;;;;;;;;;;5028106;28;20450;-79
2024/02/19 00:11:10;;;;;;;0.40;0.40;;;;;;;;;;5031542;28;20450;-79
2024/02/19 00:13:38;;;;;;;0.40;0.40;;;;;;;;;;5016502;28;20485;-79
2024/02/19 00:16:05;;;;;;;0.40;0.40;;;;;;;;;;5021985;28;20601;-79
2024/02/19 00:18:31;;;;;;;0.40;0.40;;;;;;;;;;5025643;28;20514;-80
2024/02/19 00:20:57;;;;;;;0.40;0.40;;;;;;;;;;5025313;28;20545;-80
2024/02/19 00:23:24;;;;;;;0.40;0.40;;;;;;;;;;5019747;28;20451;-79
2024/02/19 00:25:51;;;;;;;0.40;0.40;;;;;;;;;;5028118;28;20442;-80
2024/02/19 00:28:17;;;;;;;0.40;0.40;;;;;;;;;;5021691;28;20489;-79
2024/02/19 00:30:45;;;;;;;0.50;0.50;;;;;;;;;;5025599;28;20549;-79
2024/02/19 00:33:12;;;;;;;0.47;0.47;;;;;;;;;;5016261;28;20860;-80
2024/02/19 00:35:38;;;;;;;0.50;0.50;;;;;;;;;;5017909;28;20906;-80
2024/02/19 00:38:04;;;;;;;0.50;0.50;;;;;;;;;;5018070;28;20497;-80
2024/02/19 00:40:31;;;;;;;0.47;0.47;;;;;;;;;;5018070;28;20485;-80
2024/02/19 00:42:57;;;;;;;0.40;0.40;;;;;;;;;;5024240;28;20453;-80
2024/02/19 00:45:24;;;;;;;0.50;0.50;;;;;;;;;;5015906;28;20451;-80
2024/02/19 00:47:51;;;;;;;0.40;0.40;;;;;;;;;;5026946;28;20485;-80
2024/02/19 00:50:18;;;;;;;0.40;0.40;;;;;;;;;;5021038;28;20517;-79
2024/02/19 00:52:44;;;;;;;0.40;0.40;;;;;;;;;;5022091;28;20462;-80
2024/02/19 00:55:11;;;;;;;0.37;0.37;;;;;;;;;;5019869;28;20555;-80
2024/02/19 00:57:37;;;;;;;0.40;0.40;;;;;;;;;;5015979;28;20488;-80
2024/02/19 01:00:04;;;;;;;0.40;0.40;;;;;;;;;;5032902;28;20449;-79
2024/02/19 01:02:30;;;;;;;0.40;0.40;;;;;;;;;;5013273;28;20896;-79
2024/02/19 01:04:58;;;;;;;0.50;0.50;;;;;;;;;;5014964;28;20463;-79
2024/02/19 01:07:25;;;;;;;0.40;0.40;;;;;;;;;;5014372;28;21281;-79
2024/02/19 01:09:51;;;;;;;0.40;0.40;;;;;;;;;;5023945;28;20475;-79
2024/02/19 01:12:18;;;;;;;0.50;0.50;;;;;;;;;;5025190;28;20614;-79
2024/02/19 01:14:44;;;;;;;0.30;0.30;;;;;;;;;;5019164;28;20920;-78
2024/02/19 01:17:10;;;;;;;0.50;0.50;;;;;;;;;;5021824;28;20509;-79
2024/02/19 01:19:38;;;;;;;0.50;0.50;;;;;;;;;;5023411;28;20534;-79
2024/02/19 01:22:06;;;;;;;0.40;0.40;;;;;;;;;;5024770;28;20462;-79
2024/02/19 01:24:32;;;;;;;0.50;0.50;;;;;;;;;;5021440;28;20469;-78
2024/02/19 01:26:59;;;;;;;0.50;0.50;;;;;;;;;;5022596;28;20555;-78
2024/02/19 01:29:25;;;;;;;0.40;0.40;;;;;;;;;;5020505;28;20469;-78
2024/02/19 01:31:52;;;;;;;0.60;0.60;;;;;;;;;;5026909;28;20451;-78
2024/02/19 01:34:18;;;;;;;0.50;0.50;;;;;;;;;;5024327;28;21370;-78
2024/02/19 01:36:46;;;;;;;0.40;0.40;;;;;;;;;;5029743;28;20621;-78
2024/02/19 01:39:15;;;;;;;0.40;0.40;;;;;;;;;;5019515;28;20473;-80
2024/02/19 01:41:41;;;;;;;0.50;0.50;;;;;;;;;;5017524;28;20524;-80
2024/02/19 01:44:08;;;;;;;0.40;0.40;;;;;;;;;;5019353;28;20482;-80
2024/02/19 01:46:38;;;;;;;0.50;0.50;;;;;;;;;;5025052;28;20442;-80
2024/02/19 01:49:05;;;;;;;0.40;0.40;;;;;;;;;;5023292;28;20553;-80
2024/02/19 01:51:32;;;;;;;0.40;0.40;;;;;;;;;;5029265;28;20879;-80
2024/02/19 01:53:58;;;;;;;0.40;0.40;;;;;;;;;;5021154;28;20451;-80
2024/02/19 01:56:26;;;;;;;0.53;0.53;;;;;;;;;;5018559;28;20577;-80
2024/02/19 01:58:53;;;;;;;0.50;0.50;;;;;;;;;;5026715;28;20458;-78
2024/02/19 02:01:19;;;;;;;0.40;0.40;;;;;;;;;;5014798;28;20960;-80
2024/02/19 02:03:46;;;;;;;0.40;0.40;;;;;;;;;;5027344;28;20502;-79
2024/02/19 02:06:12;;;;;;;0.60;0.60;;;;;;;;;;5018019;28;20576;-80
2024/02/19 02:08:40;;;;;;;0.40;0.40;;;;;;;;;;5021264;28;20522;-81
2024/02/19 02:11:06;;;;;;;0.50;0.50;;;;;;;;;;5026255;28;20442;-80
2024/02/19 02:13:34;;;;;;;0.40;0.40;;;;;;;;;;5009314;28;20522;-80
2024/02/19 02:16:01;;;;;;;0.43;0.43;;;;;;;;;;5020881;28;20587;-80
2024/02/19 02:18:27;;;;;;;0.50;0.50;;;;;;;;;;5027770;28;20497;-81
2024/02/19 02:20:54;;;;;;;0.47;0.47;;;;;;;;;;5030753;28;20485;-80
2024/02/19 02:23:21;;;;;;;0.40;0.40;;;;;;;;;;5025280;28;20458;-80
2024/02/19 02:25:47;;;;;;;0.40;0.40;;;;;;;;;;5026134;28;20474;-80
2024/02/19 02:28:15;;;;;;;0.50;0.50;;;;;;;;;;5025445;28;20449;-81
2024/02/19 02:30:41;;;;;;;0.50;0.50;;;;;;;;;;5029408;28;20528;-81
2024/02/19 02:33:08;;;;;;;0.50;0.50;;;;;;;;;;5030614;28;20481;-81
2024/02/19 02:35:34;;;;;;;0.70;0.70;;;;;;;;;;5023949;28;20557;-81
2024/02/19 02:38:03;;;;;;;0.53;0.53;;;;;;;;;;5027754;28;20466;-78
2024/02/19 02:40:30;;;;;;;0.70;0.70;;;;;;;;;;5024589;28;20468;-81
2024/02/19 02:42:56;;;;;;;0.50;0.50;;;;;;;;;;5022930;28;20462;-81
2024/02/19 02:45:24;;;;;;;0.70;0.70;;;;;;;;;;5026239;28;20547;-80
2024/02/19 02:47:50;;;;;;;0.60;0.60;;;;;;;;;;5033413;28;20500;-81
2024/02/19 02:50:17;;;;;;;0.63;0.63;;;;;;;;;;5027071;28;20450;-80
2024/02/19 02:52:43;;;;;;;0.60;0.60;;;;;;;;;;5021357;28;20530;-81
2024/02/19 02:55:10;;;;;;;0.70;0.70;;;;;;;;;;5027857;28;20561;-80
2024/02/19 02:57:36;;;;;;;0.70;0.70;;;;;;;;;;5024227;28;20542;-80
2024/02/19 03:00:03;;;;;;;0.73;0.73;;;;;;;;;;5024678;28;20589;-80
2024/02/19 03:02:33;;;;;;;0.80;0.80;;;;;;;;;;5026136;28;20513;-80
2024/02/19 03:04:59;;;;;;;0.87;0.87;;;;;;;;;;5017776;28;20451;-80
2024/02/19 03:07:26;;;;;;;0.80;0.80;;;;;;;;;;5018998;28;20519;-81
2024/02/19 03:09:52;;;;;;;0.70;0.70;;;;;;;;;;5029338;28;20915;-80
2024/02/19 03:12:19;;;;;;;0.87;0.87;;;;;;;;;;5027316;28;20442;-80
2024/02/19 03:14:45;;;;;;;0.80;0.80;;;;;;;;;;5027396;28;20457;-79
2024/02/19 03:17:11;;;;;;;0.77;0.77;;;;;;;;;;5030600;28;20517;-79
2024/02/19 03:19:41;;;;;;;0.90;0.90;;;;;;;;;;5030024;28;20513;-80
2024/02/19 03:22:07;;;;;;;0.83;0.83;;;;;;;;;;5021797;28;20497;-80
2024/02/19 03:24:34;;;;;;;0.73;0.73;;;;;;;;;;5028268;28;20534;-80
2024/02/19 03:27:02;;;;;;;0.70;0.70;;;;;;;;;;5019944;28;20459;-81
2024/02/19 03:29:28;;;;;;;0.83;0.83;;;;;;;;;;5014707;28;20566;-81
2024/02/19 03:31:54;;;;;;;0.70;0.70;;;;;;;;;;5031070;28;20558;-80
2024/02/19 03:34:21;;;;;;;0.80;0.80;;;;;;;;;;5031268;28;20446;-81
2024/02/19 03:36:49;;;;;;;0.90;0.90;;;;;;;;;;5030520;28;20542;-80
2024/02/19 03:39:16;;;;;;;0.70;0.70;;;;;;;;;;5028758;28;20466;-79
2024/02/19 03:41:42;;;;;;;0.80;0.80;;;;;;;;;;5023735;28;20519;-80
2024/02/19 03:44:08;;;;;;;0.80;0.80;;;;;;;;;;5027941;28;20496;-81
2024/02/19 03:46:35;;;;;;;0.73;0.73;;;;;;;;;;5024824;28;20549;-81
2024/02/19 03:49:01;;;;;;;0.80;0.80;;;;;;;;;;5026614;28;21165;-80
2024/02/19 03:51:28;;;;;;;0.80;0.80;;;;;;;;;;5027189;28;20446;-80
2024/02/19 03:53:56;;;;;;;0.70;0.70;;;;;;;;;;5029025;28;20497;-80
2024/02/19 03:56:22;;;;;;;0.70;0.70;;;;;;;;;;5024353;28;20809;-81
2024/02/19 03:58:48;;;;;;;0.70;0.70;;;;;;;;;;5013920;28;20452;-81
2024/02/19 04:01:15;;;;;;;0.80;0.80;;;;;;;;;;5018985;28;20539;-81
2024/02/19 04:03:41;;;;;;;0.73;0.73;;;;;;;;;;5021953;28;21097;-81
2024/02/19 04:06:07;;;;;;;0.80;0.80;;;;;;;;;;5029139;28;20447;-81
2024/02/19 04:08:34;;;;;;;0.70;0.70;;;;;;;;;;5025390;28;20456;-80
2024/02/19 04:11:02;;;;;;;0.80;0.80;;;;;;;;;;5021534;28;20518;-80
2024/02/19 04:13:28;;;;;;;0.77;0.77;;;;;;;;;;5022107;28;20489;-80
2024/02/19 04:15:55;;;;;;;0.83;0.83;;;;;;;;;;5016227;28;20549;-80
2024/02/19 04:18:21;;;;;;;0.70;0.70;;;;;;;;;;5027776;28;20465;-80
2024/02/19 04:20:48;;;;;;;0.80;0.80;;;;;;;;;;5027243;28;20552;-80
2024/02/19 04:23:14;;;;;;;0.80;0.80;;;;;;;;;;5020652;28;20538;-80
2024/02/19 04:25:40;;;;;;;0.87;0.87;;;;;;;;;;5031274;28;20481;-80
2024/02/19 04:28:08;;;;;;;1.10;1.10;;;;;;;;;;5017579;28;20530;-80
2024/02/19 04:30:34;;;;;;;1.00;1.00;;;;;;;;;;5026218;28;20534;-81
2024/02/19 04:33:01;;;;;;;1.00;1.00;;;;;;;;;;5020530;28;20482;-81
2024/02/19 04:35:27;;;;;;;1.27;1.27;;;;;;;;;;5020354;28;20533;-78
2024/02/19 04:37:53;;;;;;;1.20;1.20;;;;;;;;;;5015997;28;20563;-80
2024/02/19 04:40:21;;;;;;;1.23;1.23;;;;;;;;;;5026098;28;20470;-81
2024/02/19 04:42:47;;;;;;;1.30;1.30;;;;;;;;;;5020127;28;20458;-81
2024/02/19 04:45:15;;;;;;;1.30;1.30;;;;;;;;;;5028369;28;20522;-81
2024/02/19 04:47:41;;;;;;;1.27;1.27;;;;;;;;;;5027347;28;20508;-81
2024/02/19 04:50:08;;;;;;;1.40;1.40;;;;;;;;;;5028496;28;20519;-81
2024/02/19 04:52:35;;;;;;;1.57;1.57;;;;;;;;;;5025104;28;20447;-80
2024/02/19 04:55:01;;;;;;;1.40;1.40;;;;;;;;;;5027537;28;20481;-80
2024/02/19 04:57:27;;;;;;;1.50;1.50;;;;;;;;;;5023241;28;20486;-80
2024/02/19 04:59:54;;;;;;;1.67;1.67;;;;;;;;;;5017646;28;20457;-80
2024/02/19 05:02:21;;;;;;;1.67;1.67;;;;;;;;;;5018820;28;20534;-79
2024/02/19 05:04:48;;;;;;;1.70;1.70;;;;;;;;;;5012960;28;20561;-80
2024/02/19 05:07:15;;;;;;;1.70;1.70;;;;;;;;;;5017315;28;20467;-81
2024/02/19 05:09:41;;;;;;;1.90;1.90;;;;;;;;;;5014406;28;20462;-80
2024/02/19 05:12:07;;;;;;;1.80;1.80;;;;;;;;;;5020377;28;20491;-80
2024/02/19 05:14:34;;;;;;;1.70;1.70;;;;;;;;;;5017959;28;20521;-80
2024/02/19 05:17:00;;;;;;;1.63;1.63;;;;;;;;;;5026422;28;20490;-80
2024/02/19 05:19:28;;;;;;;1.97;1.97;;;;;;;;;;5022961;28;20443;-80
2024/02/19 05:21:54;;;;;;;2.10;2.00;;;;;;;;;;5026017;28;20561;-80
2024/02/19 05:24:21;;;;;;;1.80;1.80;;;;;;;;;;5019085;28;20522;-80
2024/02/19 05:26:47;;;;;;;1.70;1.70;;;;;;;;;;5016464;28;20507;-79
2024/02/19 05:29:14;;;;;;;1.63;1.63;;;;;;;;;;5016390;28;20537;-78
2024/02/19 05:31:40;;;;;;;1.77;1.77;;;;;;;;;;5023608;28;20529;-80
2024/02/19 05:34:08;;;;;;;1.80;1.80;;;;;;;;;;5020188;28;20483;-79
2024/02/19 05:36:35;;;;;;;1.90;1.90;;;;;;;;;;5021085;28;20548;-78
2024/02/19 05:39:02;;;;;;;1.73;1.73;;;;;;;;;;5013792;28;20554;-79
2024/02/19 05:41:28;;;;;;;1.80;1.80;;;;;;;;;;5025370;28;21173;-79
2024/02/19 05:43:55;;;;;;;1.57;1.57;;;;;;;;;;5026219;28;20489;-78
2024/02/19 05:46:23;;;;;;;1.80;1.80;;;;;;;;;;5016002;28;20452;-79
2024/02/19 05:48:49;;;;;;;1.50;1.50;;;;;;;;;;5013767;28;20456;-79
2024/02/19 05:51:16;;;;;;;1.90;1.90;;;;;;;;;;5025468;28;20458;-79
2024/02/19 05:53:44;;;;;;;2.43;2.33;;;;;;;;;;5017752;28;20469;-79
2024/02/19 05:56:10;;;;;;;1.63;1.63;;;;;;;;;;5023659;28;20493;-79
2024/02/19 05:58:38;;;;;;;1.60;1.60;;;;;;;;;;5033975;28;20475;-78
2024/02/19 06:01:05;;;;;;;1.53;1.53;;;;;;;;;;5026862;28;20537;-78
2024/02/19 06:03:33;;;;;;;1.60;1.60;;;;;;;;;;5026073;28;20465;-78
2024/02/19 06:05:59;;;;;;;1.43;1.43;;;;;;;;;;5022862;28;20481;-78
2024/02/19 06:08:26;;;;;;;1.60;1.60;;;;;;;;;;5020586;28;20497;-80
2024/02/19 06:10:54;;;;;;;1.40;1.40;;;;;;;;;;5021434;28;20529;-81
2024/02/19 06:13:21;;;;;;;1.30;1.30;;;;;;;;;;5025627;28;20489;-81
2024/02/19 06:15:47;;;;;;;1.23;1.23;;;;;;;;;;5026026;28;20557;-81
2024/02/19 06:18:13;;;;;;;1.10;1.10;;;;;;;;;;5025409;28;20933;-82
2024/02/19 06:20:40;;;;;;;1.07;1.07;;;;;;;;;;5024901;28;20474;-81
2024/02/19 06:23:06;;;;;;;1.30;1.30;;;;;;;;;;5022337;28;20494;-80
2024/02/19 06:25:33;;;;;;;1.10;1.10;;;;;;;;;;5024785;28;20537;-78
2024/02/19 06:28:02;;;;;;;1.20;1.20;;;;;;;;;;5023889;28;20543;-79
2024/02/19 06:30:28;;;;;;;1.10;1.10;;;;;;;;;;5031788;28;20457;-78
2024/02/19 06:32:54;;;;;;;1.10;1.10;;;;;;;;;;5022327;28;20486;-78
2024/02/19 06:35:23;;;;;;;1.10;1.10;;;;;;;;;;5019455;28;21188;-78
2024/02/19 06:37:49;;;;;;;1.20;1.20;;;;;;;;;;5020065;28;20522;-78
2024/02/19 06:40:15;;;;;;;1.03;1.03;;;;;;;;;;5018982;28;20482;-79
2024/02/19 06:42:42;;;;;;;1.00;1.00;;;;;;;;;;5022123;28;20451;-78
2024/02/19 06:45:10;;;;;;;1.00;1.00;;;;;;;;;;5022216;28;20558;-78
2024/02/19 06:47:37;;;;;;;0.90;0.90;;;;;;;;;;5021707;28;20458;-78
2024/02/19 06:50:03;;;;;;;1.10;1.10;;;;;;;;;;5021740;28;20974;-78
2024/02/19 06:52:30;;;;;;;1.00;1.00;;;;;;;;;;5020033;28;20462;-78
2024/02/19 06:54:56;;;;;;;1.00;1.00;;;;;;;;;;5019895;28;20489;-78
2024/02/19 06:57:23;;;;;;;1.10;1.10;;;;;;;;;;5020788;28;20478;-78
2024/02/19 06:59:49;;;;;;;1.17;1.17;;;;;;;;;;5021568;28;20490;-78
2024/02/19 07:02:17;;;;;;;1.10;1.10;;;;;;;;;;5013225;28;20892;-78
2024/02/19 07:04:45;;;;;;;1.10;1.10;;;;;;;;;;5020976;28;20566;-78
2024/02/19 07:07:11;;;;;;;1.20;1.20;;;;;;;;;;5019715;28;20463;-78
2024/02/19 07:09:38;;;;;;;1.20;1.20;;;;;;;;;;5021651;28;20883;-78
2024/02/19 07:12:05;;;;;;;1.40;1.40;;;;;;;;;;5020258;28;21223;-78
2024/02/19 07:14:31;;;;;;;1.40;1.40;;;;;;;;;;5021644;28;20457;-78
2024/02/19 07:16:57;;;;;;;1.50;1.50;;;;;;;;;;5009383;28;20530;-77
2024/02/19 07:19:25;;;;;;;1.40;1.40;;;;;;;;;;5021430;28;20922;-78
2024/02/19 07:21:52;;;;;;;1.50;1.50;;;;;;;;;;5004791;28;20535;-79
2024/02/19 07:24:18;;;;;;;1.20;1.20;;;;;;;;;;5019263;28;21161;-77
2024/02/19 07:26:44;;;;;;;1.60;1.60;;;;;;;;;;5010925;28;20527;-79
2024/02/19 07:29:11;;;;;;;1.50;1.50;;;;;;;;;;5019504;28;20459;-79
2024/02/19 07:31:37;;;;;;;1.30;1.30;;;;;;;;;;5015793;28;20541;-79
2024/02/19 07:34:03;;;;;;;1.50;1.50;;;;;;;;;;5017269;28;20543;-79
2024/02/19 07:36:31;;;;;;;1.20;1.20;;;;;;;;;;5016579;28;20486;-79
2024/02/19 07:38:57;;;;;;;1.30;1.30;;;;;;;;;;5014390;28;20465;-79
2024/02/19 07:41:25;;;;;;;1.60;1.60;;;;;;;;;;5017515;28;20503;-79
2024/02/19 07:43:51;;;;;;;1.50;1.50;;;;;;;;;;5018477;28;20497;-78
2024/02/19 07:46:20;;;;;;;1.63;1.63;;;;;;;;;;5020919;28;20447;-78
2024/02/19 07:48:47;;;;;;;1.60;1.60;;;;;;;;;;5022798;28;20463;-79
2024/02/19 07:51:14;;;;;;;1.63;1.63;;;;;;;;;;5023404;28;20471;-79
2024/02/19 07:53:42;;;;;;;1.40;1.40;;;;;;;;;;5021670;28;20526;-79
2024/02/19 07:56:09;;;;;;;1.43;1.43;;;;;;;;;;5023754;28;20471;-77
2024/02/19 07:58:35;;;;;;;1.60;1.60;;;;;;;;;;5023776;28;20494;-78
2024/02/19 08:01:03;;;;;;;1.73;1.73;;;;;;;;;;5023200;28;20482;-78
2024/02/19 08:03:29;;;;;;;2.07;1.97;;;;;;;;;;5022336;28;20513;-80
2024/02/19 08:05:56;;;;;;;2.30;2.20;;;;;;;;;;5021567;28;20537;-77
2024/02/19 08:08:22;;;;;;;2.30;2.20;;;;;;;;;;5017962;28;20498;-77
2024/02/19 08:10:50;;;;;;;2.20;2.10;;;;;;;;;;5019980;28;20950;-77
2024/02/19 08:13:16;;;;;;;2.97;2.87;;;;;;;;;;5018982;28;20486;-80
2024/02/19 08:15:43;;;;;;;2.70;2.60;;;;;;;;;;5018763;28;20518;-78
2024/02/19 08:18:10;;;;;;;2.87;2.77;;;;;;;;;;5018262;28;20564;-78
2024/02/19 08:20:37;;;;;;;2.50;2.40;;;;;;;;;;5021279;28;20522;-79
2024/02/19 08:23:04;;;;;;;2.47;2.37;;;;;;;;;;5020730;28;20577;-78
2024/02/19 08:25:30;;;;;;;2.70;2.60;;;;;;;;;;5019709;28;20462;-79
2024/02/19 08:27:58;;;;;;;2.70;2.60;;;;;;;;;;5021355;28;20494;-78
2024/02/19 08:30:24;;;;;;;2.00;1.90;;;;;;;;;;5018285;28;20471;-78
2024/02/19 08:32:51;;;;;;;2.30;2.20;;;;;;;;;;5010009;28;20450;-77
2024/02/19 08:35:17;;;;;;;4.80;4.60;;;;;;;;;;5019546;28;20482;-77
2024/02/19 08:37:43;;;;;;;4.07;3.97;;;;;;;;;;5019547;28;20490;-77
2024/02/19 08:40:10;;;;;;;4.20;4.10;;;;;;;;;;5020786;28;20526;-77
2024/02/19 08:42:37;;;;;;;4.67;4.57;;;;;;;;;;5015624;28;20561;-79
2024/02/19 08:45:05;;;;;;;5.30;5.10;;;;;;;;;;5016046;28;20443;-79
2024/02/19 08:47:31;;;;;;;4.80;4.70;;;;;;;;;;5018974;28;20483;-79
2024/02/19 08:49:58;;;;;;;5.40;5.20;;;;;;;;;;5011822;28;20557;-79
2024/02/19 08:52:24;;;;;;;9.07;7.80;;;;;;;;;;5020537;28;20526;-80
2024/02/19 08:54:51;;;;;;;4.67;4.57;;;;;;;;;;5018039;28;20490;-80
2024/02/19 08:57:17;;;;;;;5.77;5.57;;;;;;;;;;5014547;28;20802;-79
2024/02/19 08:59:45;;;;;;;5.40;5.20;;;;;;;;;;5020568;28;20479;-80
2024/02/19 09:02:13;;;;;;;5.50;5.30;;;;;;;;;;5008669;28;20490;-79
2024/02/19 09:04:41;;;;;;;5.17;4.97;;;;;;;;;;5020918;28;20516;-78
2024/02/19 09:07:07;;;;;;;5.60;5.40;;;;;;;;;;5020650;28;20507;-80
2024/02/19 09:09:34;;;;;;;4.43;4.33;;;;;;;;;;5020273;28;20526;-80
2024/02/19 09:12:00;;;;;;;4.80;4.60;;;;;;;;;;5022141;28;20482;-79
2024/02/19 09:14:27;;;;;;;4.17;4.07;;;;;;;;;;5020726;28;20473;-78
2024/02/19 09:16:55;;;;;;;4.00;3.90;;;;;;;;;;4981088;28;1108000;-79
2024/02/19 09:19:23;;;;;;;3.40;3.30;;;;;;;;;;5017885;28;20430;-79
2024/02/19 09:21:50;;;;;;;4.00;3.90;;;;;;;;;;5016028;28;20471;-77
2024/02/19 09:24:16;;;;;;;3.57;3.47;;;;;;;;;;5016152;28;20538;-77
2024/02/19 09:26:43;;;;;;;3.90;3.80;;;;;;;;;;5021536;28;20510;-78
2024/02/19 09:29:09;;;;;;;3.90;3.80;;;;;;;;;;5013241;28;20485;-82
2024/02/19 09:31:36;;;;;;;2.90;2.80;;;;;;;;;;5017493;28;20936;-82
2024/02/19 09:34:03;;;;;;;4.77;4.57;;;;;;;;;;5019968;28;20485;-81
2024/02/19 09:36:31;;;;;;;3.20;3.10;;;;;;;;;;5019827;28;20454;-79
2024/02/19 09:38:57;;;;;;;4.37;4.17;;;;;;;;;;5014089;28;20513;-80
2024/02/19 09:41:24;;;;;;;3.10;3.00;;;;;;;;;;5020003;28;20485;-80
2024/02/19 09:43:51;;;;;;;3.37;3.27;;;;;;;;;;5010995;28;20454;-78
2024/02/19 09:46:19;;;;;;;3.00;2.90;;;;;;;;;;5019330;28;20473;-78
2024/02/19 09:48:47;;;;;;;2.63;2.53;;;;;;;;;;5018910;28;20465;-77
2024/02/19 09:51:16;;;;;;;11.00;5.13;;;;;;;;;;5019586;28;20470;-77
2024/02/19 09:53:45;;;;;;;3.20;3.10;;;;;;;;;;5014792;28;20531;-78
2024/02/19 09:56:13;;;;;;;3.07;2.97;;;;;;;;;;5013888;28;20463;-83
2024/02/19 09:58:40;;;;;;;2.50;2.40;;;;;;;;;;5018761;28;20582;-81
2024/02/19 10:01:07;;;;;;;2.47;2.37;;;;;;;;;;5013855;28;20473;-81
2024/02/19 10:03:34;;;;;;;2.70;2.60;;;;;;;;;;5017537;28;20462;-81
2024/02/19 10:06:02;;;;;;;2.60;2.50;;;;;;;;;;5017022;28;20461;-81
2024/02/19 10:08:28;;;;;;;2.30;2.20;;;;;;;;;;5012958;28;20468;-81
2024/02/19 10:10:57;;;;;;;2.50;2.40;;;;;;;;;;5018953;28;20494;-80
2024/02/19 10:13:24;;;;;;;2.30;2.20;;;;;;;;;;5015698;28;20454;-83
2024/02/19 10:15:51;;;;;;;2.00;1.90;;;;;;;;;;5012849;28;20490;-84
2024/02/19 10:18:18;;;;;;;1.83;1.80;;;;;;;;;;5018949;28;20497;-84
2024/02/19 10:20:45;;;;;;;1.50;1.50;;;;;;;;;;5016850;28;20901;-83
2024/02/19 10:23:11;;;;;;;2.03;1.93;;;;;;;;;;5015105;28;20454;-83
2024/02/19 10:25:38;;;;;;;1.60;1.60;;;;;;;;;;5016071;28;20458;-84
2024/02/19 10:28:07;;;;;;;1.80;1.80;;;;;;;;;;5018103;28;20530;-82
2024/02/19 10:30:33;;;;;;;1.93;1.83;;;;;;;;;;5012613;28;20622;-80
2024/02/19 10:32:59;;;;;;;1.77;1.77;;;;;;;;;;5015415;28;20982;-83
2024/02/19 10:35:27;;;;;;;1.73;1.73;;;;;;;;;;5018037;28;20452;-80
2024/02/19 10:37:53;;;;;;;1.93;1.83;;;;;;;;;;5019282;28;20558;-81
2024/02/19 10:40:20;;;;;;;2.03;1.93;;;;;;;;;;5014724;28;20459;-80
2024/02/19 10:42:48;;;;;;;2.83;2.73;;;;;;;;;;5021324;28;20490;-80
2024/02/19 10:45:17;;;;;;;2.73;2.63;;;;;;;;;;5020186;28;20475;-82
2024/02/19 10:47:44;;;;;;;2.30;2.20;;;;;;;;;;5024399;28;20462;-82
2024/02/19 10:50:11;;;;;;;2.27;2.17;;;;;;;;;;5022563;28;20463;-81
2024/02/19 10:52:39;;;;;;;2.30;2.20;;;;;;;;;;5023475;28;20493;-83
2024/02/19 10:55:08;;;;;;;2.30;2.20;;;;;;;;;;5016551;28;20968;-84
2024/02/19 10:57:44;;;;;;;2.83;2.63;;;;;;;;;;5018958;28;20566;-81
2024/02/19 11:00:11;;;;;;;2.00;1.90;;;;;;;;;;5016785;28;20517;-82
2024/02/19 11:02:39;;;;;;;1.57;1.57;;;;;;;;;;5018127;28;20941;-83
2024/02/19 11:05:08;;;;;;;2.10;2.00;;;;;;;;;;5019798;28;20474;-83
2024/02/19 11:07:34;;;;;;;2.10;2.00;;;;;;;;;;5017997;28;20455;-82
2024/02/19 11:10:04;;;;;;;1.60;1.60;;;;;;;;;;5013629;28;20505;-85
2024/02/19 11:12:30;;;;;;;2.10;2.00;;;;;;;;;;5009495;28;20887;-82
2024/02/19 11:14:57;;;;;;;2.03;1.93;;;;;;;;;;5021210;28;20494;-83
2024/02/19 11:17:23;;;;;;;2.30;2.20;;;;;;;;;;5007729;28;20578;-81
2024/02/19 11:19:52;;;;;;;2.20;2.10;;;;;;;;;;5017758;28;20494;-81
2024/02/19 11:22:22;;;;;;;2.00;1.90;;;;;;;;;;5017426;28;20462;-83
2024/02/19 11:24:49;;;;;;;1.50;1.50;;;;;;;;;;5015299;28;20450;-81
2024/02/19 11:27:15;;;;;;;1.63;1.63;;;;;;;;;;5019534;28;20488;-82
2024/02/19 11:29:42;;;;;;;1.80;1.70;;;;;;;;;;5017951;28;21053;-82
2024/02/19 11:32:08;;;;;;;1.50;1.50;;;;;;;;;;5019193;28;20554;-82
2024/02/19 11:34:35;;;;;;;1.40;1.40;;;;;;;;;;5020172;28;20505;-81
2024/02/19 11:37:03;;;;;;;1.20;1.20;;;;;;;;;;5017539;28;20462;-81
2024/02/19 11:39:30;;;;;;;1.20;1.20;;;;;;;;;;5017856;28;20493;-81
2024/02/19 11:41:57;;;;;;;1.93;1.83;;;;;;;;;;5016444;28;20458;-81
2024/02/19 11:44:23;;;;;;;1.37;1.37;;;;;;;;;;5016830;28;20538;-80
2024/02/19 11:46:50;;;;;;;1.47;1.47;;;;;;;;;;5015721;28;20481;-81
2024/02/19 11:49:19;;;;;;;2.00;1.90;;;;;;;;;;5019725;28;20978;-81
2024/02/19 11:51:45;;;;;;;3.23;3.03;;;;;;;;;;5019132;28;20592;-81
2024/02/19 11:54:15;;;;;;;2.00;1.90;;;;;;;;;;5016479;28;20458;-81
2024/02/19 11:56:43;;;;;;;1.43;1.43;;;;;;;;;;5020595;28;20485;-80
2024/02/19 11:59:10;;;;;;;1.40;1.40;;;;;;;;;;5018580;28;20491;-81
2024/02/19 12:01:36;;;;;;;1.70;1.70;;;;;;;;;;5014205;28;20478;-83
2024/02/19 12:04:03;;;;;;;6.67;5.27;;;;;;;;;;5020426;28;20734;-82
2024/02/19 12:06:34;;;;;;;1.47;1.47;;;;;;;;;;5022432;28;20439;-83
2024/02/19 12:09:00;;;;;;;1.70;1.70;;;;;;;;;;5016639;28;20493;-80
2024/02/19 12:11:28;;;;;;;1.43;1.43;;;;;;;;;;5020510;28;20469;-80
2024/02/19 12:13:54;;;;;;;2.43;2.33;;;;;;;;;;5022370;28;20514;-78
2024/02/19 12:16:21;;;;;;;1.50;1.50;;;;;;;;;;5010072;28;20578;-81
2024/02/19 12:18:48;;;;;;;1.67;1.67;;;;;;;;;;5015101;28;20498;-80
2024/02/19 12:21:15;;;;;;;1.50;1.50;;;;;;;;;;5016841;28;21217;-80
2024/02/19 12:23:43;;;;;;;1.60;1.60;;;;;;;;;;5014809;28;20541;-80
2024/02/19 12:26:10;;;;;;;2.20;2.10;;;;;;;;;;5021485;28;20456;-81
2024/02/19 12:28:38;;;;;;;2.53;2.43;;;;;;;;;;5016694;28;20482;-80
2024/02/19 12:31:04;;;;;;;2.50;2.40;;;;;;;;;;5021099;28;20459;-81
2024/02/19 12:33:31;;;;;;;2.40;2.30;;;;;;;;;;5013062;28;20505;-79
2024/02/19 12:35:57;;;;;;;2.83;2.73;;;;;;;;;;5014384;28;20454;-77
2024/02/19 12:38:24;;;;;;;2.73;2.63;;;;;;;;;;5019242;28;20514;-82
2024/02/19 12:40:50;;;;;;;3.10;3.00;;;;;;;;;;5021657;28;20509;-81
2024/02/19 12:43:17;;;;;;;2.60;2.50;;;;;;;;;;5019477;28;20777;-79
2024/02/19 12:45:44;;;;;;;2.90;2.80;;;;;;;;;;5019517;28;20537;-80
2024/02/19 12:48:11;;;;;;;2.70;2.60;;;;;;;;;;5018866;28;20498;-80
2024/02/19 12:50:37;;;;;;;2.43;2.33;;;;;;;;;;5019013;28;20514;-80
2024/02/19 12:53:04;;;;;;;1.80;1.70;;;;;;;;;;5020382;28;20480;-81
2024/02/19 12:55:31;;;;;;;2.10;2.00;;;;;;;;;;5018495;28;20539;-81
2024/02/19 12:57:57;;;;;;;1.57;1.57;;;;;;;;;;5019845;28;20469;-81
2024/02/19 13:00:23;;;;;;;2.20;2.10;;;;;;;;;;5016879;28;20530;-83
2024/02/19 13:02:52;;;;;;;1.70;1.70;;;;;;;;;;5018224;28;20893;-80
2024/02/19 13:05:20;;;;;;;1.50;1.50;;;;;;;;;;5017382;28;20556;-79
2024/02/19 13:07:47;;;;;;;2.50;2.40;;;;;;;;;;5015972;28;20459;-80
2024/02/19 13:10:14;;;;;;;1.50;1.50;;;;;;;;;;5019157;28;20810;-79
2024/02/19 13:12:40;;;;;;;1.17;1.17;;;;;;;;;;5016328;28;20533;-78
2024/02/19 13:15:07;;;;;;;1.10;1.10;;;;;;;;;;5018560;28;21126;-79
2024/02/19 13:17:33;;;;;;;1.10;1.10;;;;;;;;;;5016071;28;20552;-81
2024/02/19 13:20:02;;;;;;;1.10;1.10;;;;;;;;;;5016533;28;20935;-82
2024/02/19 13:22:29;;;;;;;1.23;1.20;;;;;;;;;;5008710;28;20490;-82
2024/02/19 13:24:55;;;;;;;1.20;1.20;;;;;;;;;;5008629;28;20571;-81
2024/02/19 13:27:22;;;;;;;1.63;1.63;;;;;;;;;;5018976;28;21152;-79
2024/02/19 13:29:48;;;;;;;1.60;1.60;;;;;;;;;;5021091;28;20461;-82
2024/02/19 13:32:14;;;;;;;1.50;1.50;;;;;;;;;;5020369;28;20485;-79
2024/02/19 13:34:41;;;;;;;1.70;1.70;;;;;;;;;;5019042;28;20565;-79
2024/02/19 13:37:09;;;;;;;1.40;1.40;;;;;;;;;;5019006;28;20518;-80
2024/02/19 13:39:35;;;;;;;1.37;1.37;;;;;;;;;;5020348;28;20487;-77
2024/02/19 13:42:01;;;;;;;1.60;1.60;;;;;;;;;;5016179;28;20459;-76
2024/02/19 13:44:28;;;;;;;1.47;1.47;;;;;;;;;;5019741;28;20490;-79
2024/02/19 13:46:54;;;;;;;1.60;1.60;;;;;;;;;;5020796;28;20478;-78
2024/02/19 13:49:21;;;;;;;2.30;2.20;;;;;;;;;;5016307;28;21168;-77
2024/02/19 13:51:47;;;;;;;2.10;2.00;;;;;;;;;;5016511;28;20497;-78
2024/02/19 13:54:15;;;;;;;2.00;1.90;;;;;;;;;;5019198;28;20553;-78
2024/02/19 13:56:41;;;;;;;1.50;1.50;;;;;;;;;;5020280;28;20490;-75
2024/02/19 13:59:10;;;;;;;1.50;1.50;;;;;;;;;;5034843;28;20494;-77
2024/02/19 14:01:36;;;;;;;2.03;1.93;;;;;;;;;;5024532;28;20469;-82
2024/02/19 14:04:03;;;;;;;2.20;2.10;;;;;;;;;;5029601;28;20478;-80
2024/02/19 14:06:30;;;;;;;2.17;2.07;;;;;;;;;;5021230;28;20447;-78
2024/02/19 14:08:57;;;;;;;2.43;2.33;;;;;;;;;;5025902;28;20478;-82
2024/02/19 14:11:24;;;;;;;2.60;2.50;;;;;;;;;;5025878;28;20482;-80
2024/02/19 14:13:52;;;;;;;2.10;2.00;;;;;;;;;;5021874;28;20454;-81
2024/02/19 14:16:18;;;;;;;1.60;1.60;;;;;;;;;;5031910;28;20578;-80
2024/02/19 14:18:46;;;;;;;1.30;1.30;;;;;;;;;;5024841;28;20530;-78
2024/02/19 14:21:13;;;;;;;1.60;1.60;;;;;;;;;;5024408;28;20462;-80
2024/02/19 14:23:40;;;;;;;1.80;1.70;;;;;;;;;;5026568;28;20484;-81
2024/02/19 14:26:08;;;;;;;1.67;1.67;;;;;;;;;;5031930;28;20486;-81
2024/02/19 14:28:35;;;;;;;1.70;1.70;;;;;;;;;;5024793;28;20477;-78
2024/02/19 14:31:02;;;;;;;4.03;3.90;;;;;;;;;;5025139;28;20471;-80
2024/02/19 14:33:29;;;;;;;1.97;1.87;;;;;;;;;;5011435;28;20459;-80
2024/02/19 14:35:55;;;;;;;2.00;1.90;;;;;;;;;;5033133;28;20448;-81
2024/02/19 14:38:22;;;;;;;2.37;2.27;;;;;;;;;;5025764;28;20493;-79
2024/02/19 14:40:51;;;;;;;1.80;1.80;;;;;;;;;;5011172;28;20511;-82